Time,TemperatureF,DewpointF,PressureIn,WindDirection,WindDirectionDegrees,WindSpeedMPH,WindSpeedGustMPH,Humidity,HourlyPrecipIn,Conditions,Clouds,dailyrainin,SoftwareType,DateUTC
2013-01-15 00:00:00,21.0,18.0,30.45,ENE,65,2.5,5.0,88,0.00,,,0.00,VWS V14.01,2013-01-15 05:00:00,
2013-01-15 00:04:00,20.8,17.8,30.46,NNW,339,1.2,6.2,88,0.00,,CLR,0.00,VWS V14.01,2013-01-15 05:04:00,
2013-01-15 00:09:00,20.8,17.8,30.46,North,8,0.0,6.2,88,0.00,,CLR,0.00,VWS V14.01,2013-01-15 05:09:00,
2013-01-15 00:14:00,20.9,17.9,30.46,North,7,3.8,5.0,88,0.00,,CLR,0.00,VWS V14.01,2013-01-15 05:14:00,
2013-01-15 00:15:00,21.0,18.0,30.46,North,360,1.2,6.2,88,0.00,,,0.00,VWS V14.01,2013-01-15 05:15:00,
2013-01-15 00:19:00,20.9,17.9,30.45,East,86,1.2,6.2,88,0.00,,CLR,0.00,VWS V14.01,2013-01-15 05:19:00,
2013-01-15 00:24:00,20.9,17.9,30.45,NNW,335,1.2,6.2,88,0.00,,CLR,0.00,VWS V14.01,2013-01-15 05:24:00,
2013-01-15 00:29:00,20.9,17.9,30.45,NE,51,1.2,5.0,88,0.00,,CLR,0.00,VWS V14.01,2013-01-15 05:29:00,
2013-01-15 00:30:00,20.9,17.9,30.45,North,351,2.5,3.8,88,0.00,,,0.00,VWS V14.01,2013-01-15 05:30:00,
2013-01-15 00:34:00,20.9,17.9,30.45,North,11,0.0,5.0,88,0.00,,CLR,0.00,VWS V14.01,2013-01-15 05:34:00,
2013-01-15 00:39:00,20.9,17.9,30.45,North,352,3.8,5.0,88,0.00,,CLR,0.00,VWS V14.01,2013-01-15 05:39:00,
2013-01-15 00:44:00,20.9,17.9,30.45,NNE,22,0.0,2.5,88,0.00,,CLR,0.00,VWS V14.01,2013-01-15 05:44:00,
2013-01-15 00:45:00,20.5,17.8,30.44,NNW,339,1.2,3.8,89,0.00,,,0.00,VWS V14.01,2013-01-15 05:45:00,
2013-01-15 00:49:00,20.9,17.9,30.45,NW,322,1.2,3.8,88,0.00,,CLR,0.00,VWS V14.01,2013-01-15 05:49:00,
2013-01-15 00:54:00,21.0,18.0,30.45,NW,324,2.5,5.0,88,0.00,,CLR,0.00,VWS V14.01,2013-01-15 05:54:00,
2013-01-15 00:59:00,21.0,18.0,30.45,NE,44,2.5,5.0,88,0.00,,CLR,0.00,VWS V14.01,2013-01-15 05:59:00,
2013-01-15 01:00:00,20.2,17.5,30.44,NE,53,0.0,3.8,89,0.00,,,0.00,VWS V14.01,2013-01-15 06:00:00,
2013-01-15 01:04:00,20.9,17.9,30.45,NE,45,5.0,6.2,88,0.00,,CLR,0.00,VWS V14.01,2013-01-15 06:04:00,
2013-01-15 01:09:00,20.9,17.9,30.45,North,360,0.0,6.2,88,0.00,,CLR,0.00,VWS V14.01,2013-01-15 06:09:00,
2013-01-15 01:14:00,21.0,18.0,30.45,NNW,347,0.0,1.2,88,0.00,,CLR,0.00,VWS V14.01,2013-01-15 06:14:00,
2013-01-15 01:15:00,20.1,17.4,30.44,NNW,331,1.2,6.2,89,0.00,,,0.00,VWS V14.01,2013-01-15 06:15:00,
2013-01-15 01:19:00,21.0,18.0,30.45,North,359,1.2,2.5,88,0.00,,CLR,0.00,VWS V14.01,2013-01-15 06:19:00,
2013-01-15 01:24:00,20.9,17.9,30.45,North,11,2.5,3.8,88,0.00,,CLR,0.00,VWS V14.01,2013-01-15 06:24:00,
2013-01-15 01:29:00,20.8,17.8,30.45,NE,44,2.5,2.5,88,0.00,,CLR,0.00,VWS V14.01,2013-01-15 06:29:00,
2013-01-15 01:30:00,20.0,17.3,30.44,North,354,1.2,3.8,89,0.00,,,0.00,VWS V14.01,2013-01-15 06:30:00,
2013-01-15 01:34:00,20.6,17.6,30.45,NNE,20,2.5,3.8,88,0.00,,CLR,0.00,VWS V14.01,2013-01-15 06:34:00,
2013-01-15 01:39:00,20.5,17.5,30.44,NNE,19,1.2,3.8,88,0.00,,CLR,0.00,VWS V14.01,2013-01-15 06:39:00,
2013-01-15 01:44:00,20.3,17.6,30.44,NNW,338,1.2,3.8,89,0.00,,CLR,0.00,VWS V14.01,2013-01-15 06:44:00,
2013-01-15 01:45:00,19.8,17.4,30.44,NNW,328,1.2,2.5,90,0.00,,,0.00,VWS V14.01,2013-01-15 06:45:00,
2013-01-15 01:49:00,20.3,17.6,30.44,North,351,3.8,3.8,89,0.00,,CLR,0.00,VWS V14.01,2013-01-15 06:49:00,
2013-01-15 01:54:00,20.3,17.6,30.44,North,11,1.2,3.8,89,0.00,,CLR,0.00,VWS V14.01,2013-01-15 06:54:00,
2013-01-15 01:59:00,20.2,17.5,30.44,North,8,1.2,2.5,89,0.00,,CLR,0.00,VWS V14.01,2013-01-15 06:59:00,
2013-01-15 02:00:00,19.7,17.2,30.44,NNW,347,0.0,3.8,90,0.00,,,0.00,VWS V14.01,2013-01-15 07:00:00,
2013-01-15 02:04:00,20.1,17.4,30.44,NW,305,1.2,2.5,89,0.00,,CLR,0.00,VWS V14.01,2013-01-15 07:04:00,
2013-01-15 02:09:00,20.1,17.4,30.44,NNE,23,6.2,6.2,89,0.00,,CLR,0.00,VWS V14.01,2013-01-15 07:09:00,
2013-01-15 02:14:00,20.1,17.4,30.44,North,355,2.5,3.8,89,0.00,,CLR,0.00,VWS V14.01,2013-01-15 07:14:00,
2013-01-15 02:15:00,19.7,17.2,30.44,North,350,1.2,2.5,90,0.00,,,0.00,VWS V14.01,2013-01-15 07:15:00,
2013-01-15 02:19:00,20.1,17.4,30.44,NNE,12,0.0,3.8,89,0.00,,CLR,0.00,VWS V14.01,2013-01-15 07:19:00,
2013-01-15 02:24:00,20.0,17.3,30.44,North,356,0.0,3.8,89,0.00,,CLR,0.00,VWS V14.01,2013-01-15 07:24:00,
2013-01-15 02:29:00,20.0,17.5,30.44,NNE,16,0.0,1.2,90,0.00,,CLR,0.00,VWS V14.01,2013-01-15 07:29:00,
2013-01-15 02:30:00,19.6,17.4,30.44,North,0,1.2,3.8,91,0.00,,,0.00,VWS V14.01,2013-01-15 07:30:00,
2013-01-15 02:34:00,20.0,17.3,30.44,NNE,16,0.0,2.5,89,0.00,,,0.00,VWS V14.01,2013-01-15 07:34:00,
2013-01-15 02:39:00,19.8,17.4,30.44,NNW,328,1.2,2.5,90,0.00,,,0.00,VWS V14.01,2013-01-15 07:39:00,
2013-01-15 02:44:00,19.8,17.4,30.44,NNW,343,1.2,3.8,90,0.00,,,0.00,VWS V14.01,2013-01-15 07:44:00,
2013-01-15 02:45:00,19.7,17.5,30.44,NNW,338,1.2,3.8,91,0.00,,,0.00,VWS V14.01,2013-01-15 07:45:00,
2013-01-15 02:49:00,19.8,17.4,30.44,NE,39,0.0,3.8,90,0.00,,,0.00,VWS V14.01,2013-01-15 07:49:00,
2013-01-15 02:54:00,19.7,17.2,30.44,NNE,30,0.0,3.8,90,0.00,,,0.00,VWS V14.01,2013-01-15 07:54:00,
2013-01-15 02:59:00,19.7,17.2,30.44,NW,324,0.0,2.5,90,0.00,,,0.00,VWS V14.01,2013-01-15 07:59:00,
2013-01-15 03:00:00,19.8,17.6,30.43,North,0,1.2,3.8,91,0.00,,,0.00,VWS V14.01,2013-01-15 08:00:00,
2013-01-15 03:04:00,19.7,17.2,30.44,North,352,0.0,2.5,90,0.00,,,0.00,VWS V14.01,2013-01-15 08:04:00,
2013-01-15 03:09:00,19.7,17.2,30.44,NNE,22,0.0,2.5,90,0.00,,,0.00,VWS V14.01,2013-01-15 08:09:00,
2013-01-15 03:14:00,19.7,17.2,30.44,NNW,348,1.2,2.5,90,0.00,,,0.00,VWS V14.01,2013-01-15 08:14:00,
2013-01-15 03:15:00,19.7,17.5,30.43,NNW,338,1.2,3.8,91,0.00,,,0.00,VWS V14.01,2013-01-15 08:15:00,
2013-01-15 03:30:00,19.8,17.6,30.43,NNW,338,1.2,5.0,91,0.00,,,0.00,VWS V14.01,2013-01-15 08:30:00,
2013-01-15 03:45:00,19.7,17.2,30.43,NNW,338,1.2,3.8,90,0.00,,,0.00,VWS V14.01,2013-01-15 08:45:00,
2013-01-15 04:00:00,19.6,17.1,30.43,NNE,22,1.2,3.8,90,0.00,,,0.00,VWS V14.01,2013-01-15 09:00:00,
2013-01-15 04:15:00,19.5,17.0,30.43,NNE,22,1.2,3.8,90,0.00,,,0.00,VWS V14.01,2013-01-15 09:15:00,
2013-01-15 04:30:00,18.7,16.5,30.43,North,8,2.5,5.0,91,0.00,,-RA,0.00,VWS V14.01,2013-01-15 09:30:00,
2013-01-15 04:41:00,18.9,16.7,30.43,NNE,22,0.0,1.2,91,0.00,,,0.00,VWS V14.01,2013-01-15 09:41:00,
2013-01-15 04:42:00,18.9,16.7,30.43,NNW,340,2.5,2.5,91,0.00,,,0.00,VWS V14.01,2013-01-15 09:42:00,
2013-01-15 04:43:00,18.8,16.6,30.43,NNW,331,2.5,2.5,91,0.00,,,0.00,VWS V14.01,2013-01-15 09:43:00,
2013-01-15 04:44:00,18.8,16.6,30.43,North,3,1.2,2.5,91,0.00,,,0.00,VWS V14.01,2013-01-15 09:44:00,
2013-01-15 04:45:00,18.8,16.6,30.43,North,358,1.2,2.5,91,0.00,,,0.00,VWS V14.01,2013-01-15 09:45:00,
2013-01-15 05:00:00,18.7,16.5,30.43,NNE,22,1.2,5.0,91,0.00,,CLR,0.00,VWS V14.01,2013-01-15 10:00:00,
2013-01-15 05:15:00,18.6,16.7,30.43,North,349,1.2,3.8,92,0.00,,CLR,0.00,VWS V14.01,2013-01-15 10:15:00,
2013-01-15 05:30:00,18.7,16.5,30.43,North,8,2.5,5.0,91,0.00,,CLR,0.00,VWS V14.01,2013-01-15 10:30:00,
2013-01-15 05:37:00,19.5,17.0,30.43,NNE,22,1.2,3.8,90,0.00,,,0.00,VWS V14.01,2013-01-15 10:37:00,
2013-01-15 05:42:00,18.8,16.6,30.43,North,1,2.5,3.8,91,0.00,,,0.00,VWS V14.01,2013-01-15 10:42:00,
2013-01-15 05:45:00,18.7,16.5,30.43,NNE,25,0.0,6.2,91,0.00,,CLR,0.00,VWS V14.01,2013-01-15 10:45:00,
2013-01-15 05:47:00,18.7,16.5,30.43,NNW,348,0.0,5.0,91,0.00,,,0.00,VWS V14.01,2013-01-15 10:47:00,
2013-01-15 05:52:00,18.7,16.5,30.43,North,8,2.5,5.0,91,0.00,,,0.00,VWS V14.01,2013-01-15 10:52:00,
2013-01-15 05:57:00,18.6,16.4,30.43,NNE,32,1.2,2.5,91,0.00,,,0.00,VWS V14.01,2013-01-15 10:57:00,
2013-01-15 06:00:00,18.6,16.4,30.43,NW,326,2.5,5.0,91,0.00,,CLR,0.00,VWS V14.01,2013-01-15 11:00:00,
2013-01-15 06:02:00,18.6,16.4,30.43,NNW,342,2.5,2.5,91,0.00,,,0.00,VWS V14.01,2013-01-15 11:02:00,
2013-01-15 06:07:00,18.7,16.8,30.43,NNE,14,0.0,3.8,92,0.00,,,0.00,VWS V14.01,2013-01-15 11:07:00,
2013-01-15 06:12:00,18.6,16.7,30.43,North,353,1.2,2.5,92,0.00,,,0.00,VWS V14.01,2013-01-15 11:12:00,
2013-01-15 06:15:00,18.6,16.4,30.43,NE,48,2.5,3.8,91,0.00,,CLR,0.00,VWS V14.01,2013-01-15 11:15:00,
2013-01-15 06:17:00,18.6,16.7,30.43,NNW,330,1.2,3.8,92,0.00,,,0.00,VWS V14.01,2013-01-15 11:17:00,
2013-01-15 06:22:00,18.7,16.8,30.43,NNE,14,1.2,3.8,92,0.00,,,0.00,VWS V14.01,2013-01-15 11:22:00,
2013-01-15 06:27:00,18.7,16.5,30.43,NNE,24,1.2,3.8,91,0.00,,,0.00,VWS V14.01,2013-01-15 11:27:00,
2013-01-15 06:30:00,18.5,16.3,30.43,NNE,32,0.0,3.8,91,0.00,,CLR,0.00,VWS V14.01,2013-01-15 11:30:00,
2013-01-15 06:32:00,18.7,16.8,30.43,NNE,16,0.0,3.8,92,0.00,,,0.00,VWS V14.01,2013-01-15 11:32:00,
2013-01-15 06:37:00,18.7,16.5,30.43,North,349,0.0,5.0,91,0.00,,,0.00,VWS V14.01,2013-01-15 11:37:00,
2013-01-15 06:42:00,18.7,16.5,30.43,NNE,20,2.5,2.5,91,0.00,,,0.00,VWS V14.01,2013-01-15 11:42:00,
2013-01-15 06:45:00,18.5,16.6,30.44,NE,47,0.0,3.8,92,0.00,,CLR,0.00,VWS V14.01,2013-01-15 11:45:00,
2013-01-15 06:47:00,18.6,16.4,30.43,NNE,15,1.2,5.0,91,0.00,,,0.00,VWS V14.01,2013-01-15 11:47:00,
2013-01-15 06:52:00,18.6,16.4,30.43,NE,38,2.5,5.0,91,0.00,,,0.00,VWS V14.01,2013-01-15 11:52:00,
2013-01-15 06:57:00,18.6,16.4,30.43,North,9,1.2,3.8,91,0.00,,,0.00,VWS V14.01,2013-01-15 11:57:00,
2013-01-15 07:00:00,18.4,16.5,30.43,NE,45,0.0,2.5,92,0.00,,CLR,0.00,VWS V14.01,2013-01-15 12:00:00,
2013-01-15 07:02:00,18.6,16.4,30.43,NNW,347,1.2,3.8,91,0.00,,,0.00,VWS V14.01,2013-01-15 12:02:00,
2013-01-15 07:07:00,18.6,16.4,30.43,North,4,1.2,3.8,91,0.00,,,0.00,VWS V14.01,2013-01-15 12:07:00,
2013-01-15 07:12:00,18.5,16.3,30.43,NW,308,1.2,2.5,91,0.00,,,0.00,VWS V14.01,2013-01-15 12:12:00,
2013-01-15 07:15:00,18.6,16.7,30.42,NNE,19,0.0,3.8,92,0.00,,CLR,0.00,VWS V14.01,2013-01-15 12:15:00,
2013-01-15 07:17:00,18.5,16.3,30.43,NNW,347,2.5,3.8,91,0.00,,,0.00,VWS V14.01,2013-01-15 12:17:00,
2013-01-15 07:22:00,18.5,16.3,30.44,North,3,2.5,3.8,91,0.00,,,0.00,VWS V14.01,2013-01-15 12:22:00,
2013-01-15 07:27:00,18.5,16.3,30.44,NNE,23,1.2,1.2,91,0.00,,,0.00,VWS V14.01,2013-01-15 12:27:00,
2013-01-15 07:30:00,18.9,17.0,30.42,NE,39,2.5,3.8,92,0.00,,CLR,0.00,VWS V14.01,2013-01-15 12:30:00,
2013-01-15 07:32:00,18.5,16.6,30.44,NNE,26,1.2,3.8,92,0.00,,,0.00,VWS V14.01,2013-01-15 12:32:00,
2013-01-15 07:37:00,18.5,16.6,30.44,NNE,19,1.2,3.8,92,0.00,,,0.00,VWS V14.01,2013-01-15 12:37:00,
2013-01-15 07:42:00,18.4,16.5,30.44,North,350,0.0,1.2,92,0.00,,,0.00,VWS V14.01,2013-01-15 12:42:00,
2013-01-15 07:45:00,19.5,17.3,30.42,NE,41,1.2,5.0,91,0.00,,CLR,0.00,VWS V14.01,2013-01-15 12:45:00,
2013-01-15 07:47:00,18.4,16.5,30.44,NNW,339,2.5,2.5,92,0.00,,,0.00,VWS V14.01,2013-01-15 12:47:00,
2013-01-15 07:52:00,18.4,16.5,30.43,North,1,0.0,2.5,92,0.00,,,0.00,VWS V14.01,2013-01-15 12:52:00,
2013-01-15 07:57:00,18.4,16.5,30.43,NNE,30,1.2,2.5,92,0.00,,,0.00,VWS V14.01,2013-01-15 12:57:00,
2013-01-15 08:00:00,20.1,17.6,30.42,North,4,3.8,5.0,90,0.00,,CLR,0.00,VWS V14.01,2013-01-15 13:00:00,
2013-01-15 08:02:00,18.5,16.6,30.42,NNE,30,2.5,2.5,92,0.00,,,0.00,VWS V14.01,2013-01-15 13:02:00,
2013-01-15 08:07:00,18.5,16.6,30.42,ENE,57,3.8,3.8,92,0.00,,,0.00,VWS V14.01,2013-01-15 13:07:00,
2013-01-15 08:12:00,18.6,16.7,30.42,NNE,32,2.5,2.5,92,0.00,,,0.00,VWS V14.01,2013-01-15 13:12:00,
2013-01-15 08:15:00,20.9,18.2,30.43,North,351,2.5,6.2,89,0.00,,CLR,0.00,VWS V14.01,2013-01-15 13:15:00,
2013-01-15 08:17:00,18.7,16.8,30.43,ENE,77,1.2,3.8,92,0.00,,,0.00,VWS V14.01,2013-01-15 13:17:00,
2013-01-15 08:22:00,18.8,16.9,30.42,NNE,32,0.0,3.8,92,0.00,,,0.00,VWS V14.01,2013-01-15 13:22:00,
2013-01-15 08:26:00,18.9,17.0,30.42,NNE,25,1.2,2.5,92,0.00,,,0.00,VWS V14.01,2013-01-15 13:26:00,
2013-01-15 08:30:00,21.6,18.6,30.43,NNE,18,3.8,8.8,88,0.00,,CLR,0.00,VWS V14.01,2013-01-15 13:30:00,
2013-01-15 08:31:00,19.2,17.3,30.42,NNE,28,1.2,3.8,92,0.00,,,0.00,VWS V14.01,2013-01-15 13:31:00,
2013-01-15 08:36:00,19.3,17.4,30.42,North,354,2.5,5.0,92,0.00,,,0.00,VWS V14.01,2013-01-15 13:36:00,
2013-01-15 08:41:00,19.5,17.6,30.42,NE,40,0.0,5.0,92,0.00,,,0.00,VWS V14.01,2013-01-15 13:41:00,
2013-01-15 08:45:00,22.2,18.9,30.44,WNW,284,2.5,7.5,87,0.00,,CLR,0.00,VWS V14.01,2013-01-15 13:45:00,
2013-01-15 08:47:00,19.8,17.6,30.42,East,84,3.8,5.0,91,0.00,,,0.00,VWS V14.01,2013-01-15 13:47:00,
2013-01-15 08:52:00,20.0,17.8,30.42,NE,53,0.0,5.0,91,0.00,,,0.00,VWS V14.01,2013-01-15 13:52:00,
2013-01-15 08:56:00,20.1,17.6,30.42,North,11,1.2,5.0,90,0.00,,,0.00,VWS V14.01,2013-01-15 13:56:00,
2013-01-15 09:00:00,22.8,19.2,30.45,NE,39,6.2,7.5,86,0.00,,CLR,0.00,VWS V14.01,2013-01-15 14:00:00,
2013-01-15 09:01:00,20.4,17.9,30.43,North,351,2.5,6.2,90,0.00,,,0.00,VWS V14.01,2013-01-15 14:01:00,
2013-01-15 09:06:00,20.6,18.1,30.43,NNE,20,3.8,6.2,90,0.00,,,0.00,VWS V14.01,2013-01-15 14:06:00,
2013-01-15 09:11:00,21.0,18.5,30.43,NE,51,1.2,2.5,90,0.00,,,0.00,VWS V14.01,2013-01-15 14:11:00,
2013-01-15 09:15:00,23.3,19.5,30.44,NE,39,2.5,7.5,85,0.00,,CLR,0.00,VWS V14.01,2013-01-15 14:15:00,
2013-01-15 09:16:00,21.3,18.6,30.43,NNE,13,1.2,6.2,89,0.00,,,0.00,VWS V14.01,2013-01-15 14:16:00,
2013-01-15 09:21:00,21.5,18.5,30.43,ENE,70,1.2,8.8,88,0.00,,,0.00,VWS V14.01,2013-01-15 14:21:00,
2013-01-15 09:26:00,21.7,18.7,30.43,NE,46,3.8,5.0,88,0.00,,,0.00,VWS V14.01,2013-01-15 14:26:00,
2013-01-15 09:30:00,23.8,20.0,30.45,ENE,61,3.8,10.0,85,0.00,,CLR,0.00,VWS V14.01,2013-01-15 14:30:00,
2013-01-15 09:31:00,21.9,18.9,30.43,NNE,32,3.8,6.2,88,0.00,,,0.00,VWS V14.01,2013-01-15 14:31:00,
2013-01-15 09:36:00,22.0,18.7,30.44,NE,36,1.2,6.2,87,0.00,,,0.00,VWS V14.01,2013-01-15 14:36:00,
2013-01-15 09:42:00,22.3,19.0,30.44,NE,50,2.5,7.5,87,0.00,,,0.00,VWS V14.01,2013-01-15 14:42:00,
2013-01-15 09:45:00,23.9,19.2,30.44,NNE,15,5.0,7.5,82,0.00,,CLR,0.00,VWS V14.01,2013-01-15 14:45:00,
2013-01-15 09:47:00,22.4,19.1,30.44,East,79,5.0,7.5,87,0.00,,,0.00,VWS V14.01,2013-01-15 14:47:00,
2013-01-15 09:52:00,22.6,19.3,30.45,NE,44,2.5,7.5,87,0.00,,,0.00,VWS V14.01,2013-01-15 14:52:00,
2013-01-15 09:57:00,22.8,19.2,30.45,North,6,3.8,7.5,86,0.00,,,0.00,VWS V14.01,2013-01-15 14:57:00,
2013-01-15 10:00:00,24.7,19.7,30.43,NE,39,2.5,7.5,81,0.00,,CLR,0.00,VWS V14.01,2013-01-15 15:00:00,
2013-01-15 10:02:00,22.8,19.0,30.45,ENE,60,1.2,7.5,85,0.00,,,0.00,VWS V14.01,2013-01-15 15:02:00,
2013-01-15 10:07:00,23.0,19.2,30.45,NE,44,1.2,7.5,85,0.00,,,0.00,VWS V14.01,2013-01-15 15:07:00,
2013-01-15 10:11:00,23.3,19.5,30.44,East,82,1.2,3.8,85,0.00,,,0.00,VWS V14.01,2013-01-15 15:11:00,
2013-01-15 10:15:00,25.0,19.7,30.42,NE,42,1.2,10.0,80,0.00,,CLR,0.00,VWS V14.01,2013-01-15 15:15:00,
2013-01-15 10:16:00,23.4,19.3,30.45,NNE,27,5.0,10.0,84,0.00,,,0.00,VWS V14.01,2013-01-15 15:16:00,
2013-01-15 10:21:00,23.5,19.4,30.44,ENE,59,2.5,10.0,84,0.00,,,0.00,VWS V14.01,2013-01-15 15:21:00,
2013-01-15 10:26:00,23.9,19.8,30.45,ENE,63,5.0,5.0,84,0.00,,,0.00,VWS V14.01,2013-01-15 15:26:00,
2013-01-15 10:30:00,25.7,20.4,30.41,NNE,29,3.8,7.5,80,0.00,,CLR,0.00,VWS V14.01,2013-01-15 15:30:00,
2013-01-15 10:31:00,24.1,19.7,30.45,North,356,5.0,6.2,83,0.00,,,0.00,VWS V14.01,2013-01-15 15:31:00,
2013-01-15 10:36:00,24.0,19.6,30.44,NNW,347,2.5,6.2,83,0.00,,,0.00,VWS V14.01,2013-01-15 15:36:00,
2013-01-15 10:41:00,23.9,19.2,30.44,NNE,30,5.0,6.2,82,0.00,,,0.00,VWS V14.01,2013-01-15 15:41:00,
2013-01-15 10:45:00,26.4,20.8,30.40,NE,38,10.0,11.2,79,0.00,,CLR,0.00,VWS V14.01,2013-01-15 15:45:00,
2013-01-15 10:46:00,24.0,19.6,30.44,NNE,16,1.2,6.2,83,0.00,,,0.00,VWS V14.01,2013-01-15 15:46:00,
2013-01-15 10:51:00,24.4,20.0,30.43,NE,42,5.0,7.5,83,0.00,,,0.00,VWS V14.01,2013-01-15 15:51:00,
2013-01-15 10:56:00,24.8,20.1,30.43,ESE,104,3.8,7.5,82,0.00,,,0.00,VWS V14.01,2013-01-15 15:56:00,
2013-01-15 11:00:00,26.6,21.0,30.39,NE,36,5.0,11.2,79,0.00,,CLR,0.00,VWS V14.01,2013-01-15 16:00:00,
2013-01-15 11:01:00,24.8,19.5,30.43,North,354,2.5,10.0,80,0.00,,,0.00,VWS V14.01,2013-01-15 16:01:00,
2013-01-15 11:06:00,24.8,19.8,30.43,NE,52,5.0,10.0,81,0.00,,,0.00,VWS V14.01,2013-01-15 16:06:00,
2013-01-15 11:11:00,25.1,20.1,30.42,NNW,330,1.2,2.5,81,0.00,,,0.00,VWS V14.01,2013-01-15 16:11:00,
2013-01-15 11:15:00,27.4,20.8,30.38,NNE,19,2.5,10.0,76,0.00,,CLR,0.00,VWS V14.01,2013-01-15 16:15:00,
2013-01-15 11:16:00,25.4,20.1,30.42,NNW,333,5.0,7.5,80,0.00,,,0.00,VWS V14.01,2013-01-15 16:16:00,
2013-01-15 11:21:00,25.5,20.2,30.41,ENE,65,3.8,7.5,80,0.00,,,0.00,VWS V14.01,2013-01-15 16:21:00,
2013-01-15 11:26:00,25.8,20.5,30.40,ENE,68,6.2,7.5,80,0.00,,,0.00,VWS V14.01,2013-01-15 16:26:00,
2013-01-15 11:30:00,27.8,21.5,30.37,East,81,1.2,7.5,77,0.00,,CLR,0.00,VWS V14.01,2013-01-15 16:30:00,
2013-01-15 11:31:00,26.0,20.7,30.40,WNW,299,3.8,11.2,80,0.00,,,0.00,VWS V14.01,2013-01-15 16:31:00,
2013-01-15 11:36:00,26.2,20.9,30.41,SW,217,1.2,11.2,80,0.00,,CLR,0.00,VWS V14.01,2013-01-15 16:36:00,
2013-01-15 11:41:00,26.3,20.4,30.40,NE,34,6.2,11.2,78,0.00,,CLR,0.00,VWS V14.01,2013-01-15 16:41:00,
2013-01-15 11:45:00,28.8,21.6,30.37,NE,51,6.2,11.2,74,0.00,,CLR,0.00,VWS V14.01,2013-01-15 16:45:00,
2013-01-15 11:46:00,26.4,20.8,30.39,NNW,329,3.8,11.2,79,0.00,,CLR,0.00,VWS V14.01,2013-01-15 16:46:00,
2013-01-15 11:51:00,26.5,20.6,30.39,North,11,1.2,11.2,78,0.00,,CLR,0.00,VWS V14.01,2013-01-15 16:51:00,
2013-01-15 11:56:00,26.6,21.0,30.39,North,11,3.8,6.2,79,0.00,,CLR,0.00,VWS V14.01,2013-01-15 16:56:00,
2013-01-15 12:00:00,29.0,22.1,30.36,ENE,63,5.0,6.2,75,0.00,,CLR,0.00,VWS V14.01,2013-01-15 17:00:00,
2013-01-15 12:01:00,26.8,21.2,30.39,NE,50,5.0,7.5,79,0.00,,CLR,0.00,VWS V14.01,2013-01-15 17:01:00,
2013-01-15 12:06:00,27.1,21.2,30.38,North,4,2.5,10.0,78,0.00,,CLR,0.00,VWS V14.01,2013-01-15 17:06:00,
2013-01-15 12:11:00,27.4,21.1,30.37,NE,41,7.5,7.5,77,0.00,,CLR,0.00,VWS V14.01,2013-01-15 17:11:00,
2013-01-15 12:15:00,29.4,22.1,30.34,NE,39,6.2,8.8,74,0.00,,CLR,0.00,VWS V14.01,2013-01-15 17:15:00,
2013-01-15 12:16:00,27.2,21.0,30.37,NE,52,3.8,7.5,77,0.00,,CLR,0.00,VWS V14.01,2013-01-15 17:16:00,
2013-01-15 12:21:00,27.3,21.4,30.36,NW,314,1.2,7.5,78,0.00,,CLR,0.00,VWS V14.01,2013-01-15 17:21:00,
2013-01-15 12:26:00,28.0,22.0,30.37,NE,48,1.2,5.0,78,0.00,,CLR,0.00,VWS V14.01,2013-01-15 17:26:00,
2013-01-15 12:30:00,29.5,22.6,30.32,NE,55,3.8,8.8,75,0.00,,CLR,0.00,VWS V14.01,2013-01-15 17:30:00,
2013-01-15 12:31:00,28.2,21.3,30.37,East,86,5.0,11.2,75,0.00,,CLR,0.00,VWS V14.01,2013-01-15 17:31:00,
2013-01-15 12:36:00,28.6,22.3,30.37,NE,40,2.5,11.2,77,0.00,,CLR,0.00,VWS V14.01,2013-01-15 17:36:00,
2013-01-15 12:41:00,28.7,21.5,30.37,NNW,340,0.0,6.2,74,0.00,,CLR,0.00,VWS V14.01,2013-01-15 17:41:00,
2013-01-15 12:45:00,29.3,21.7,30.31,NE,53,7.5,13.8,73,0.00,,CLR,0.00,VWS V14.01,2013-01-15 17:45:00,
2013-01-15 12:46:00,28.7,21.8,30.37,NNW,340,1.2,6.2,75,0.00,,CLR,0.00,VWS V14.01,2013-01-15 17:46:00,
2013-01-15 12:51:00,29.0,21.8,30.36,NW,319,2.5,6.2,74,0.00,,CLR,0.00,VWS V14.01,2013-01-15 17:51:00,
2013-01-15 12:56:00,29.0,21.8,30.36,NNE,32,6.2,7.5,74,0.00,,CLR,0.00,VWS V14.01,2013-01-15 17:56:00,
2013-01-15 13:00:00,29.7,22.1,30.31,ENE,65,3.8,12.5,73,0.00,,CLR,0.00,VWS V14.01,2013-01-15 18:00:00,
2013-01-15 13:01:00,29.1,21.9,30.36,East,79,2.5,8.8,74,0.00,,CLR,0.00,VWS V14.01,2013-01-15 18:01:00,
2013-01-15 13:06:00,29.4,22.1,30.35,ENE,61,5.0,8.8,74,0.00,,CLR,0.00,VWS V14.01,2013-01-15 18:06:00,
2013-01-15 13:11:00,29.4,21.8,30.34,NNE,20,3.8,6.2,73,0.00,,CLR,0.00,VWS V14.01,2013-01-15 18:11:00,
2013-01-15 13:15:00,30.5,21.9,30.32,NE,51,2.5,8.8,70,0.00,,CLR,0.00,VWS V14.01,2013-01-15 18:15:00,
2013-01-15 13:16:00,29.3,21.7,30.34,NNE,27,3.8,8.8,73,0.00,,CLR,0.00,VWS V14.01,2013-01-15 18:16:00,
2013-01-15 13:21:00,29.5,22.2,30.33,NE,56,5.0,8.8,74,0.00,,CLR,0.00,VWS V14.01,2013-01-15 18:21:00,
2013-01-15 13:26:00,29.6,22.4,30.32,NE,50,6.2,6.2,74,0.00,,CLR,0.00,VWS V14.01,2013-01-15 18:26:00,
2013-01-15 13:30:00,29.9,22.3,30.32,NNW,333,0.0,8.8,73,0.00,,CLR,0.00,VWS V14.01,2013-01-15 18:30:00,
2013-01-15 13:31:00,29.4,21.5,30.32,NE,34,5.0,13.8,72,0.00,,CLR,0.00,VWS V14.01,2013-01-15 18:31:00,
2013-01-15 13:36:00,29.2,21.0,30.31,NNE,21,6.2,13.8,71,0.00,,CLR,0.00,VWS V14.01,2013-01-15 18:36:00,
2013-01-15 13:41:00,29.4,21.8,30.31,East,88,7.5,10.0,73,0.00,,CLR,0.00,VWS V14.01,2013-01-15 18:41:00,
2013-01-15 13:45:00,29.9,22.3,30.32,NE,41,1.2,6.2,73,0.00,,CLR,0.00,VWS V14.01,2013-01-15 18:45:00,
2013-01-15 13:46:00,29.3,21.7,30.31,ENE,57,6.2,12.5,73,0.00,,CLR,0.00,VWS V14.01,2013-01-15 18:46:00,
2013-01-15 13:51:00,29.6,22.0,30.31,NNE,30,3.8,12.5,73,0.00,,CLR,0.00,VWS V14.01,2013-01-15 18:51:00,
2013-01-15 13:56:00,29.8,22.2,30.31,ENE,70,1.2,6.2,73,0.00,,CLR,0.00,VWS V14.01,2013-01-15 18:56:00,
2013-01-15 14:00:00,29.5,22.9,30.32,ENE,78,0.0,8.8,76,0.00,,CLR,0.00,VWS V14.01,2013-01-15 19:00:00,
2013-01-15 14:01:00,30.1,21.9,30.31,ENE,67,2.5,8.8,71,0.00,,CLR,0.00,VWS V14.01,2013-01-15 19:01:00,
2013-01-15 14:06:00,30.6,22.7,30.32,NE,56,2.5,8.8,72,0.00,,CLR,0.00,VWS V14.01,2013-01-15 19:06:00,
2013-01-15 14:11:00,30.4,22.1,30.32,ENE,66,5.0,5.0,71,0.00,,CLR,0.00,VWS V14.01,2013-01-15 19:11:00,
2013-01-15 14:15:00,29.4,23.1,30.33,NNW,346,1.2,5.0,77,0.00,,CLR,0.00,VWS V14.01,2013-01-15 19:15:00,
2013-01-15 14:16:00,30.3,22.4,30.32,ENE,70,3.8,8.8,72,0.00,,CLR,0.00,VWS V14.01,2013-01-15 19:16:00,
2013-01-15 14:21:00,30.1,22.2,30.33,NNE,23,3.8,8.8,72,0.00,,CLR,0.00,VWS V14.01,2013-01-15 19:21:00,
2013-01-15 14:26:00,29.9,22.6,30.32,NNW,334,1.2,2.5,74,0.00,,CLR,0.00,VWS V14.01,2013-01-15 19:26:00,
2013-01-15 14:30:00,29.4,22.8,30.32,NE,41,5.0,6.2,76,0.00,,CLR,0.00,VWS V14.01,2013-01-15 19:30:00,
2013-01-15 14:31:00,29.9,22.6,30.32,NNE,32,1.2,3.8,74,0.00,,CLR,0.00,VWS V14.01,2013-01-15 19:31:00,
2013-01-15 14:36:00,30.0,22.7,30.32,NW,320,0.0,3.8,74,0.00,,CLR,0.00,VWS V14.01,2013-01-15 19:36:00,
2013-01-15 14:41:00,29.9,22.6,30.31,NE,53,0.0,2.5,74,0.00,,CLR,0.00,VWS V14.01,2013-01-15 19:41:00,
2013-01-15 14:45:00,29.3,23.0,30.33,NW,311,0.0,6.2,77,0.00,,CLR,0.00,VWS V14.01,2013-01-15 19:45:00,
2013-01-15 14:46:00,29.8,23.2,30.32,NE,42,2.5,3.8,76,0.00,,CLR,0.00,VWS V14.01,2013-01-15 19:46:00,
2013-01-15 14:51:00,29.5,22.6,30.31,North,356,3.8,8.8,75,0.00,,CLR,0.00,VWS V14.01,2013-01-15 19:51:00,
2013-01-15 14:56:00,29.5,22.9,30.33,ENE,63,3.8,3.8,76,0.00,,CLR,0.00,VWS V14.01,2013-01-15 19:56:00,
2013-01-15 15:00:00,29.4,23.4,30.33,NNE,13,0.0,5.0,78,0.00,,CLR,0.00,VWS V14.01,2013-01-15 20:00:00,
2013-01-15 15:01:00,29.4,22.5,30.33,NE,46,0.0,5.0,75,0.00,,CLR,0.00,VWS V14.01,2013-01-15 20:01:00,
2013-01-15 15:06:00,29.4,23.1,30.33,NE,49,2.5,5.0,77,0.00,,CLR,0.00,VWS V14.01,2013-01-15 20:06:00,
2013-01-15 15:11:00,29.4,22.8,30.34,NNE,20,1.2,3.8,76,0.00,,CLR,0.00,VWS V14.01,2013-01-15 20:11:00,
2013-01-15 15:15:00,29.3,23.6,30.34,NNE,23,0.0,3.8,79,0.00,,CLR,0.00,VWS V14.01,2013-01-15 20:15:00,
2013-01-15 15:16:00,29.3,23.0,30.34,NE,51,0.0,3.8,77,0.00,,CLR,0.00,VWS V14.01,2013-01-15 20:16:00,
2013-01-15 15:21:00,29.4,23.1,30.33,NNE,32,1.2,3.8,77,0.00,,CLR,0.00,VWS V14.01,2013-01-15 20:21:00,
2013-01-15 15:26:00,29.3,22.7,30.32,NE,46,3.8,6.2,76,0.00,,CLR,0.00,VWS V14.01,2013-01-15 20:26:00,
2013-01-15 15:30:00,29.1,23.1,30.32,North,11,0.0,6.2,78,0.00,,CLR,0.00,VWS V14.01,2013-01-15 20:30:00,
2013-01-15 15:31:00,29.2,22.9,30.31,ENE,67,1.2,6.2,77,0.00,,CLR,0.00,VWS V14.01,2013-01-15 20:31:00,
2013-01-15 15:36:00,29.2,23.2,30.31,ENE,72,2.5,6.2,78,0.00,,CLR,0.00,VWS V14.01,2013-01-15 20:36:00,
2013-01-15 15:41:00,29.3,23.0,30.33,NNW,347,0.0,1.2,77,0.00,,CLR,0.00,VWS V14.01,2013-01-15 20:41:00,
2013-01-15 15:45:00,29.0,23.3,30.30,NE,36,3.8,5.0,79,0.00,,CLR,0.00,VWS V14.01,2013-01-15 20:45:00,
2013-01-15 15:46:00,29.3,23.0,30.33,NNE,13,0.0,5.0,77,0.00,,CLR,0.00,VWS V14.01,2013-01-15 20:46:00,
2013-01-15 15:51:00,29.4,23.1,30.33,ENE,63,0.0,5.0,77,0.00,,CLR,0.00,VWS V14.01,2013-01-15 20:51:00,
2013-01-15 15:56:00,29.4,23.1,30.33,NE,45,2.5,3.8,77,0.00,,CLR,0.00,VWS V14.01,2013-01-15 20:56:00,
2013-01-15 16:00:00,29.0,23.6,30.29,ENE,68,3.8,6.2,80,0.00,,CLR,0.00,VWS V14.01,2013-01-15 21:00:00,
2013-01-15 16:01:00,29.4,23.1,30.33,East,84,0.0,3.8,77,0.00,,CLR,0.00,VWS V14.01,2013-01-15 21:01:00,
2013-01-15 16:06:00,29.3,23.0,30.34,NNW,329,1.2,3.8,77,0.00,,CLR,0.00,VWS V14.01,2013-01-15 21:06:00,
2013-01-15 16:11:00,29.3,23.6,30.33,NNE,29,2.5,2.5,79,0.00,,CLR,0.00,VWS V14.01,2013-01-15 21:11:00,
2013-01-15 16:15:00,28.9,23.5,30.29,East,82,0.0,7.5,80,0.00,,CLR,0.00,VWS V14.01,2013-01-15 21:15:00,
2013-01-15 16:16:00,29.2,22.9,30.33,NNE,32,2.5,6.2,77,0.00,,CLR,0.00,VWS V14.01,2013-01-15 21:16:00,
2013-01-15 16:21:00,29.1,23.1,30.32,NE,53,2.5,6.2,78,0.00,,CLR,0.00,VWS V14.01,2013-01-15 21:21:00,
2013-01-15 16:26:00,29.0,23.0,30.31,NNE,27,2.5,2.5,78,0.00,,CLR,0.00,VWS V14.01,2013-01-15 21:26:00,
2013-01-15 16:30:00,28.9,23.8,30.29,ENE,78,1.2,6.2,81,0.00,,CLR,0.00,VWS V14.01,2013-01-15 21:30:00,
2013-01-15 16:31:00,29.0,23.3,30.31,North,8,2.5,5.0,79,0.00,,CLR,0.00,VWS V14.01,2013-01-15 21:31:00,
2013-01-15 16:36:00,29.0,23.3,30.30,North,349,1.2,5.0,79,0.00,,SCT110,0.00,VWS V14.01,2013-01-15 21:36:00,
2013-01-15 16:41:00,29.0,23.0,30.30,North,8,3.8,5.0,78,0.00,,SCT110,0.00,VWS V14.01,2013-01-15 21:41:00,
2013-01-15 16:45:00,29.0,24.2,30.28,NE,37,0.0,3.8,82,0.00,,CLR,0.00,VWS V14.01,2013-01-15 21:45:00,
2013-01-15 16:46:00,29.0,23.3,30.30,NE,51,0.0,5.0,79,0.00,,SCT110,0.00,VWS V14.01,2013-01-15 21:46:00,
2013-01-15 16:51:00,28.9,23.2,30.29,NE,34,1.2,5.0,79,0.00,,SCT110,0.00,VWS V14.01,2013-01-15 21:51:00,
2013-01-15 16:56:00,29.0,23.6,30.28,NE,35,1.2,7.5,80,0.00,,SCT110,0.00,VWS V14.01,2013-01-15 21:56:00,
2013-01-15 17:00:00,29.1,24.0,30.28,East,84,0.0,6.2,81,0.00,,CLR,0.00,VWS V14.01,2013-01-15 22:00:00,
2013-01-15 17:01:00,28.9,23.2,30.28,NNE,19,3.8,7.5,79,0.00,,SCT110,0.00,VWS V14.01,2013-01-15 22:01:00,
2013-01-15 17:06:00,28.9,23.8,30.29,NE,45,0.0,7.5,81,0.00,,SCT110,0.00,VWS V14.01,2013-01-15 22:06:00,
2013-01-15 17:11:00,28.9,23.5,30.29,East,80,0.0,1.2,80,0.00,,SCT110,0.00,VWS V14.01,2013-01-15 22:11:00,
2013-01-15 17:15:00,29.1,24.3,30.28,NNE,15,0.0,2.5,82,0.00,,CLR,0.00,VWS V14.01,2013-01-15 22:15:00,
2013-01-15 17:16:00,29.0,23.9,30.29,NE,53,0.0,6.2,81,0.00,,SCT110,0.00,VWS V14.01,2013-01-15 22:16:00,
2013-01-15 17:21:00,29.0,23.9,30.29,North,3,0.0,6.2,81,0.00,,SCT110,0.00,VWS V14.01,2013-01-15 22:21:00,
2013-01-15 17:26:00,28.9,23.8,30.29,ENE,65,1.2,2.5,81,0.00,,SCT110,0.00,VWS V14.01,2013-01-15 22:26:00,
2013-01-15 17:30:00,29.1,24.0,30.27,NE,36,1.2,3.8,81,0.00,,CLR,0.00,VWS V14.01,2013-01-15 22:30:00,
2013-01-15 17:31:00,29.0,23.9,30.29,NNE,29,2.5,3.8,81,0.00,,SCT110,0.00,VWS V14.01,2013-01-15 22:31:00,
2013-01-15 17:36:00,29.0,23.9,30.28,NE,49,2.5,3.8,81,0.00,,OVC110,0.00,VWS V14.01,2013-01-15 22:36:00,
2013-01-15 17:41:00,29.0,24.2,30.28,NE,37,1.2,1.2,82,0.00,,OVC110,0.00,VWS V14.01,2013-01-15 22:41:00,
2013-01-15 17:45:00,29.1,24.6,30.26,South,171,0.0,1.2,83,0.00,,CLR,0.00,VWS V14.01,2013-01-15 22:45:00,
2013-01-15 17:46:00,29.0,23.9,30.28,NE,53,0.0,6.2,81,0.00,,OVC110,0.00,VWS V14.01,2013-01-15 22:46:00,
2013-01-15 17:51:00,29.0,24.2,30.29,NE,55,1.2,6.2,82,0.00,,OVC110,0.00,VWS V14.01,2013-01-15 22:51:00,
2013-01-15 17:56:00,29.1,24.0,30.28,East,84,0.0,0.0,81,0.00,,OVC110,0.00,VWS V14.01,2013-01-15 22:56:00,
2013-01-15 18:00:00,29.1,24.6,30.26,South,171,1.2,1.2,83,0.00,,CLR,0.00,VWS V14.01,2013-01-15 23:00:00,
2013-01-15 18:01:00,29.1,24.3,30.29,NE,53,2.5,2.5,82,0.00,,OVC110,0.00,VWS V14.01,2013-01-15 23:01:00,
2013-01-15 18:06:00,29.1,24.3,30.28,NNE,16,0.0,2.5,82,0.00,,OVC110,0.00,VWS V14.01,2013-01-15 23:06:00,
2013-01-15 18:11:00,29.2,24.4,30.28,NNE,15,0.0,0.0,82,0.00,,OVC110,0.00,VWS V14.01,2013-01-15 23:11:00,
2013-01-15 18:15:00,29.1,24.9,30.25,North,11,0.0,2.5,84,0.00,,CLR,0.00,VWS V14.01,2013-01-15 23:15:00,
2013-01-15 18:16:00,29.1,24.3,30.27,NE,34,0.0,2.5,82,0.00,,OVC110,0.00,VWS V14.01,2013-01-15 23:16:00,
2013-01-15 18:21:00,29.1,24.3,30.27,NE,49,2.5,3.8,82,0.00,,OVC110,0.00,VWS V14.01,2013-01-15 23:21:00,
2013-01-15 18:26:00,29.1,24.3,30.27,NE,35,0.0,1.2,82,0.00,,OVC110,0.00,VWS V14.01,2013-01-15 23:26:00,
2013-01-15 18:30:00,29.1,24.9,30.25,NNE,23,1.2,2.5,84,0.00,,CLR,0.00,VWS V14.01,2013-01-15 23:30:00,
2013-01-15 18:31:00,29.1,24.3,30.27,South,170,0.0,1.2,82,0.00,,OVC110,0.00,VWS V14.01,2013-01-15 23:31:00,
2013-01-15 18:36:00,29.1,24.3,30.26,South,170,0.0,1.2,82,0.00,,OVC085,0.00,VWS V14.01,2013-01-15 23:36:00,
2013-01-15 18:41:00,29.1,24.6,30.27,South,170,0.0,0.0,83,0.00,,OVC085,0.00,VWS V14.01,2013-01-15 23:41:00,
2013-01-15 18:45:00,29.1,24.9,30.25,NNW,335,0.0,3.8,84,0.00,,CLR,0.00,VWS V14.01,2013-01-15 23:45:00,
2013-01-15 18:46:00,29.1,24.6,30.27,South,170,0.0,1.2,83,0.00,,OVC085,0.00,VWS V14.01,2013-01-15 23:46:00,
2013-01-15 18:51:00,29.1,24.6,30.26,South,170,0.0,1.2,83,0.00,,OVC085,0.00,VWS V14.01,2013-01-15 23:51:00,
2013-01-15 18:56:00,29.1,24.6,30.26,WSW,246,0.0,1.2,83,0.00,,OVC085,0.00,VWS V14.01,2013-01-15 23:56:00,
2013-01-15 19:00:00,29.2,25.0,30.24,NNE,13,1.2,3.8,84,0.00,,CLR,0.00,VWS V14.01,2013-01-16 00:00:00,
2013-01-15 19:01:00,29.1,24.6,30.25,NNE,29,0.0,2.5,83,0.00,,OVC085,0.00,VWS V14.01,2013-01-16 00:01:00,
2013-01-15 19:06:00,29.1,24.9,30.25,NNE,18,1.2,2.5,84,0.00,,OVC095,0.00,VWS V14.01,2013-01-16 00:06:00,
2013-01-15 19:11:00,29.0,24.8,30.25,North,11,0.0,0.0,84,0.00,,OVC095,0.00,VWS V14.01,2013-01-16 00:11:00,
2013-01-15 19:15:00,29.1,24.6,30.23,NE,56,3.8,7.5,83,0.00,,CLR,0.00,VWS V14.01,2013-01-16 00:15:00,
2013-01-15 19:16:00,29.1,24.9,30.25,NE,37,1.2,2.5,84,0.00,,OVC095,0.00,VWS V14.01,2013-01-16 00:16:00,
2013-01-15 19:21:00,29.1,24.9,30.25,NNW,339,1.2,2.5,84,0.00,,OVC095,0.00,VWS V14.01,2013-01-16 00:21:00,
2013-01-15 19:26:00,29.2,25.0,30.25,NNE,23,1.2,1.2,84,0.00,,OVC095,0.00,VWS V14.01,2013-01-16 00:26:00,
2013-01-15 19:30:00,29.1,24.9,30.23,NE,45,0.0,5.0,84,0.00,,CLR,0.00,VWS V14.01,2013-01-16 00:30:00,
2013-01-15 19:31:00,29.1,24.9,30.25,North,349,0.0,3.8,84,0.00,,OVC095,0.00,VWS V14.01,2013-01-16 00:31:00,
2013-01-15 19:36:00,29.1,24.9,30.25,North,352,1.2,3.8,84,0.00,,OVC095,0.00,VWS V14.01,2013-01-16 00:36:00,
2013-01-15 19:41:00,29.1,24.9,30.25,North,351,0.0,1.2,84,0.00,,OVC095,0.00,VWS V14.01,2013-01-16 00:41:00,
2013-01-15 19:45:00,29.1,24.9,30.22,ENE,63,1.2,5.0,84,0.00,,CLR,0.00,VWS V14.01,2013-01-16 00:45:00,
2013-01-15 19:46:00,29.2,25.0,30.25,NNE,29,1.2,3.8,84,0.00,,OVC095,0.00,VWS V14.01,2013-01-16 00:46:00,
2013-01-15 19:51:00,29.2,25.0,30.25,NE,39,0.0,3.8,84,0.00,,OVC095,0.00,VWS V14.01,2013-01-16 00:51:00,
2013-01-15 19:56:00,29.2,25.0,30.24,NE,37,1.2,1.2,84,0.00,,OVC095,0.00,VWS V14.01,2013-01-16 00:56:00,
2013-01-15 20:00:00,29.1,25.2,30.22,ENE,59,1.2,5.0,85,0.00,,CLR,0.00,VWS V14.01,2013-01-16 01:00:00,
2013-01-15 20:01:00,29.1,24.9,30.24,North,354,1.2,3.8,84,0.00,,OVC095,0.00,VWS V14.01,2013-01-16 01:01:00,
2013-01-15 20:06:00,29.2,25.0,30.23,NE,35,2.5,3.8,84,0.00,,OVC095,0.00,VWS V14.01,2013-01-16 01:06:00,
2013-01-15 20:11:00,29.1,24.6,30.23,ENE,59,2.5,5.0,83,0.00,,OVC095,0.00,VWS V14.01,2013-01-16 01:11:00,
2013-01-15 20:15:00,29.0,25.1,30.22,NE,46,1.2,2.5,85,0.00,,CLR,0.00,VWS V14.01,2013-01-16 01:15:00,
2013-01-15 20:16:00,29.2,25.0,30.23,NNE,22,1.2,5.0,84,0.00,,OVC095,0.00,VWS V14.01,2013-01-16 01:16:00,
2013-01-15 20:21:00,29.1,24.9,30.23,NE,51,0.0,5.0,84,0.00,,OVC095,0.00,VWS V14.01,2013-01-16 01:21:00,
2013-01-15 20:26:00,29.1,24.9,30.23,NE,45,0.0,0.0,84,0.00,,OVC095,0.00,VWS V14.01,2013-01-16 01:26:00,
2013-01-15 20:30:00,29.0,25.1,30.22,NNW,348,0.0,3.8,85,0.00,,CLR,0.00,VWS V14.01,2013-01-16 01:30:00,
2013-01-15 20:31:00,29.1,24.9,30.23,North,356,0.0,3.8,84,0.00,,OVC095,0.00,VWS V14.01,2013-01-16 01:31:00,
2013-01-15 20:36:00,29.1,25.2,30.22,NE,46,2.5,5.0,85,0.00,,BKN110,0.00,VWS V14.01,2013-01-16 01:36:00,
2013-01-15 20:41:00,29.1,24.9,30.22,ENE,63,1.2,1.2,84,0.00,,BKN110,0.00,VWS V14.01,2013-01-16 01:41:00,
2013-01-15 20:45:00,28.9,25.0,30.21,NE,50,0.0,2.5,85,0.00,,CLR,0.00,VWS V14.01,2013-01-16 01:45:00,
2013-01-15 20:46:00,29.1,24.9,30.22,ENE,68,1.2,5.0,84,0.00,,BKN110,0.00,VWS V14.01,2013-01-16 01:46:00,
2013-01-15 20:51:00,29.1,25.2,30.22,ENE,58,1.2,5.0,85,0.00,,BKN110,0.00,VWS V14.01,2013-01-16 01:51:00,
2013-01-15 20:56:00,29.0,25.1,30.22,North,1,2.5,2.5,85,0.00,,BKN110,0.00,VWS V14.01,2013-01-16 01:56:00,
2013-01-15 21:00:00,28.9,25.0,30.21,NNW,333,1.2,3.8,85,0.00,,CLR,0.00,VWS V14.01,2013-01-16 02:00:00,
2013-01-15 21:01:00,29.0,25.1,30.22,NE,44,1.2,2.5,85,0.00,,BKN110,0.00,VWS V14.01,2013-01-16 02:01:00,
2013-01-15 21:06:00,29.0,25.1,30.22,NE,34,0.0,2.5,85,0.00,,BKN110,0.00,VWS V14.01,2013-01-16 02:06:00,
2013-01-15 21:11:00,29.0,25.1,30.22,NNW,337,1.2,1.2,85,0.00,,BKN110,0.00,VWS V14.01,2013-01-16 02:11:00,
2013-01-15 21:15:00,28.8,24.9,30.20,ENE,63,1.2,3.8,85,0.00,,CLR,0.00,VWS V14.01,2013-01-16 02:15:00,
2013-01-15 21:16:00,29.0,25.1,30.22,ENE,57,0.0,1.2,85,0.00,,BKN110,0.00,VWS V14.01,2013-01-16 02:16:00,
2013-01-15 21:21:00,29.0,25.1,30.22,NNE,20,1.2,3.8,85,0.00,,BKN110,0.00,VWS V14.01,2013-01-16 02:21:00,
2013-01-15 21:26:00,29.0,25.1,30.22,North,355,1.2,1.2,85,0.00,,BKN110,0.00,VWS V14.01,2013-01-16 02:26:00,
2013-01-15 21:30:00,28.8,24.9,30.20,North,353,2.5,3.8,85,0.00,,CLR,0.00,VWS V14.01,2013-01-16 02:30:00,
2013-01-15 21:31:00,29.0,25.1,30.22,North,9,1.2,2.5,85,0.00,,BKN110,0.00,VWS V14.01,2013-01-16 02:31:00,
2013-01-15 21:36:00,29.0,25.1,30.21,North,350,0.0,2.5,85,0.00,,OVC070,0.00,VWS V14.01,2013-01-16 02:36:00,
2013-01-15 21:41:00,29.0,25.1,30.21,NE,36,0.0,1.2,85,0.00,,OVC070,0.00,VWS V14.01,2013-01-16 02:41:00,
2013-01-15 21:45:00,28.5,24.6,30.20,NE,46,0.0,5.0,85,0.00,,CLR,0.00,VWS V14.01,2013-01-16 02:45:00,
2013-01-15 21:46:00,28.9,25.0,30.21,North,356,2.5,3.8,85,0.00,,OVC070,0.00,VWS V14.01,2013-01-16 02:46:00,
2013-01-15 21:51:00,28.9,25.2,30.21,North,358,1.2,3.8,86,0.00,,OVC070,0.00,VWS V14.01,2013-01-16 02:51:00,
2013-01-15 21:56:00,28.9,25.0,30.21,NNW,333,1.2,1.2,85,0.00,,OVC070,0.00,VWS V14.01,2013-01-16 02:56:00,
2013-01-15 22:00:00,28.5,24.9,30.18,NW,319,2.5,6.2,86,0.00,,CLR,0.00,VWS V14.01,2013-01-16 03:00:00,
2013-01-15 22:01:00,28.9,25.0,30.20,NNW,328,1.2,2.5,85,0.00,,OVC070,0.00,VWS V14.01,2013-01-16 03:01:00,
2013-01-15 22:06:00,28.9,25.0,30.20,North,8,1.2,3.8,85,0.00,,OVC070,0.00,VWS V14.01,2013-01-16 03:06:00,
2013-01-15 22:11:00,28.8,24.9,30.20,NNW,333,1.2,2.5,85,0.00,,OVC070,0.00,VWS V14.01,2013-01-16 03:11:00,
2013-01-15 22:15:00,28.4,24.8,30.17,NE,51,0.0,5.0,86,0.00,,CLR,0.00,VWS V14.01,2013-01-16 03:15:00,
2013-01-15 22:16:00,28.8,24.9,30.20,NNE,23,0.0,3.8,85,0.00,,OVC070,0.00,VWS V14.01,2013-01-16 03:16:00,
2013-01-15 22:21:00,28.8,25.1,30.19,North,6,0.0,3.8,86,0.00,,OVC070,0.00,VWS V14.01,2013-01-16 03:21:00,
2013-01-15 22:26:00,28.7,24.8,30.20,North,360,2.5,5.0,85,0.00,,OVC070,0.00,VWS V14.01,2013-01-16 03:26:00,
2013-01-15 22:30:00,28.4,24.8,30.17,NE,53,2.5,5.0,86,0.00,,CLR,0.00,VWS V14.01,2013-01-16 03:30:00,
2013-01-15 22:31:00,28.7,24.8,30.20,NNE,30,2.5,5.0,85,0.00,,OVC070,0.00,VWS V14.01,2013-01-16 03:31:00,
2013-01-15 22:36:00,28.6,24.7,30.20,ENE,68,2.5,5.0,85,0.00,,OVC090,0.00,VWS V14.01,2013-01-16 03:36:00,
2013-01-15 22:41:00,28.5,24.6,30.19,North,350,0.0,2.5,85,0.00,,OVC090,0.00,VWS V14.01,2013-01-16 03:41:00,
2013-01-15 22:45:00,28.4,24.8,30.18,ENE,65,1.2,5.0,86,0.00,,CLR,0.00,VWS V14.01,2013-01-16 03:45:00,
2013-01-15 22:46:00,28.5,24.9,30.18,NNE,20,2.5,5.0,86,0.00,,OVC090,0.00,VWS V14.01,2013-01-16 03:46:00,
2013-01-15 22:51:00,28.5,24.9,30.18,NE,53,1.2,6.2,86,0.00,,OVC090,0.00,VWS V14.01,2013-01-16 03:51:00,
2013-01-15 22:56:00,28.5,24.9,30.18,NNW,342,0.0,3.8,86,0.00,,OVC090,0.00,VWS V14.01,2013-01-16 03:56:00,
2013-01-15 23:00:00,28.3,24.7,30.16,NNE,17,2.5,3.8,86,0.00,,CLR,0.00,VWS V14.01,2013-01-16 04:00:00,
2013-01-15 23:01:00,28.4,24.8,30.17,NNE,22,1.2,5.0,86,0.00,,OVC090,0.00,VWS V14.01,2013-01-16 04:01:00,
2013-01-15 23:04:00,28.3,24.7,30.16,NNE,25,2.5,3.8,86,0.00,,OVC100,0.00,VWS V14.01,2013-01-16 04:04:00,
2013-01-15 23:05:00,28.3,24.7,30.16,NNW,337,1.2,3.8,86,0.00,,OVC100,0.00,VWS V14.01,2013-01-16 04:05:00,
2013-01-15 23:06:00,28.4,24.8,30.18,NNE,32,1.2,5.0,86,0.00,,OVC090,0.00,VWS V14.01,2013-01-16 04:06:00,
2013-01-15 23:07:00,28.3,24.7,30.16,ENE,59,0.0,3.8,86,0.00,,OVC100,0.00,VWS V14.01,2013-01-16 04:07:00,
2013-01-15 23:08:00,28.3,24.7,30.16,NE,53,0.0,3.8,86,0.00,,OVC100,0.00,VWS V14.01,2013-01-16 04:08:00,
2013-01-15 23:09:00,28.3,24.7,30.16,NE,53,0.0,3.8,86,0.00,,OVC100,0.00,VWS V14.01,2013-01-16 04:09:00,
2013-01-15 23:11:00,28.4,24.8,30.17,NE,53,0.0,0.0,86,0.00,,OVC090,0.00,VWS V14.01,2013-01-16 04:11:00,
2013-01-15 23:15:00,28.2,24.6,30.16,NE,56,1.2,3.8,86,0.00,,CLR,0.00,VWS V14.01,2013-01-16 04:15:00,
2013-01-15 23:16:00,28.4,24.8,30.18,NE,44,1.2,2.5,86,0.00,,OVC090,0.00,VWS V14.01,2013-01-16 04:16:00,
2013-01-15 23:21:00,28.4,24.8,30.18,North,9,1.2,5.0,86,0.00,,OVC090,0.00,VWS V14.01,2013-01-16 04:21:00,
2013-01-15 23:26:00,28.4,24.8,30.17,ENE,60,2.5,3.8,86,0.00,,OVC090,0.00,VWS V14.01,2013-01-16 04:26:00,
2013-01-15 23:30:00,28.0,24.6,30.15,NNW,344,1.2,3.8,87,0.00,,CLR,0.00,VWS V14.01,2013-01-16 04:30:00,
2013-01-15 23:31:00,28.4,24.8,30.17,NE,46,1.2,3.8,86,0.00,,OVC090,0.00,VWS V14.01,2013-01-16 04:31:00,
2013-01-15 23:36:00,28.3,24.7,30.17,ENE,68,1.2,5.0,86,0.00,,OVC100,0.00,VWS V14.01,2013-01-16 04:36:00,
2013-01-15 23:41:00,28.4,24.5,30.17,ENE,65,1.2,1.2,85,0.00,,OVC100,0.00,VWS V14.01,2013-01-16 04:41:00,
2013-01-15 23:45:00,27.7,24.6,30.16,ENE,63,0.0,1.2,88,0.00,,CLR,0.00,VWS V14.01,2013-01-16 04:45:00,
2013-01-15 23:46:00,28.3,24.7,30.17,NNE,30,1.2,2.5,86,0.00,,OVC100,0.00,VWS V14.01,2013-01-16 04:46:00,
2013-01-15 23:51:00,28.3,24.7,30.17,NE,42,2.5,3.8,86,0.00,,OVC100,0.00,VWS V14.01,2013-01-16 04:51:00,
2013-01-15 23:56:00,28.3,24.7,30.16,NNE,28,0.0,2.5,86,0.00,,OVC100,0.00,VWS V14.01,2013-01-16 04:56:00,